sensor_id;sensor_type;location;lat;lon;timestamp;pressure;altitude;pressure_sealevel;temperature;humidity
75668;BME280;64266;48.798;44.756;2024-01-15T00:00:54;101713.38;;;-5.01;65.61
75668;BME280;64266;48.798;44.756;2024-01-15T00:05:57;101765.78;;;-4.56;64.69
75668;BME280;64266;48.798;44.756;2024-01-15T00:11:00;101699.78;;;-4.90;65.21
75668;BME280;64266;48.798;44.756;2024-01-15T00:16:04;101777.63;;;-4.25;66.22
75668;BME280;64266;48.798;44.756;2024-01-15T00:21:07;101712.53;;;-4.60;65.02
75668;BME280;64266;48.798;44.756;2024-01-15T00:26:12;101729.09;;;-4.36;64.84
75668;BME280;64266;48.798;44.756;2024-01-15T00:31:16;101735.06;;;-4.21;65.24
75668;BME280;64266;48.798;44.756;2024-01-15T00:36:20;101705.91;;;-4.38;65.19
75668;BME280;64266;48.798;44.756;2024-01-15T00:41:23;101692.94;;;-4.50;66.67
75668;BME280;64266;48.798;44.756;2024-01-15T00:46:26;101744.34;;;-4.05;67.96
75668;BME280;64266;48.798;44.756;2024-01-15T00:51:29;101724.34;;;-4.03;65.13
75668;BME280;64266;48.798;44.756;2024-01-15T00:56:33;101617.34;;;-4.82;65.72
75668;BME280;64266;48.798;44.756;2024-01-15T01:01:36;101743.78;;;-3.83;65.25
75668;BME280;64266;48.798;44.756;2024-01-15T01:06:40;101701.69;;;-3.87;65.22
75668;BME280;64266;48.798;44.756;2024-01-15T01:11:44;101663.25;;;-3.93;65.95
75668;BME280;64266;48.798;44.756;2024-01-15T01:16:47;101680.56;;;-3.80;65.33
75668;BME280;64266;48.798;44.756;2024-01-15T01:21:50;101679.84;;;-3.57;65.04
75668;BME280;64266;48.798;44.756;2024-01-15T01:26:55;101606.34;;;-4.07;65.92
75668;BME280;64266;48.798;44.756;2024-01-15T01:31:58;101636.00;;;-3.73;65.54
75668;BME280;64266;48.798;44.756;2024-01-15T01:37:01;101641.69;;;-3.68;67.03
75668;BME280;64266;48.798;44.756;2024-01-15T01:42:04;101653.50;;;-3.39;65.69
75668;BME280;64266;48.798;44.756;2024-01-15T01:47:09;101619.88;;;-3.40;66.93
75668;BME280;64266;48.798;44.756;2024-01-15T01:52:13;101629.72;;;-3.20;66.82
75668;BME280;64266;48.798;44.756;2024-01-15T01:57:17;101597.78;;;-3.33;66.78
75668;BME280;64266;48.798;44.756;2024-01-15T02:02:21;101644.97;;;-2.92;66.27
75668;BME280;64266;48.798;44.756;2024-01-15T02:07:25;101481.06;;;-3.80;66.42
75668;BME280;64266;48.798;44.756;2024-01-15T02:12:28;101584.84;;;-3.09;66.80
75668;BME280;64266;48.798;44.756;2024-01-15T02:17:31;101625.03;;;-2.91;67.42
75668;BME280;64266;48.798;44.756;2024-01-15T02:22:34;101563.31;;;-3.22;67.04
75668;BME280;64266;48.798;44.756;2024-01-15T02:27:37;101577.56;;;-3.04;68.20
75668;BME280;64266;48.798;44.756;2024-01-15T02:32:41;101587.63;;;-3.00;69.68
75668;BME280;64266;48.798;44.756;2024-01-15T02:37:44;101569.34;;;-2.98;70.15
75668;BME280;64266;48.798;44.756;2024-01-15T02:42:47;101490.44;;;-3.31;68.23
75668;BME280;64266;48.798;44.756;2024-01-15T02:47:50;101561.50;;;-2.86;69.85
75668;BME280;64266;48.798;44.756;2024-01-15T02:52:53;101520.66;;;-2.95;71.95
75668;BME280;64266;48.798;44.756;2024-01-15T02:57:56;101537.25;;;-2.74;69.52
75668;BME280;64266;48.798;44.756;2024-01-15T03:02:58;101506.09;;;-2.74;69.60
75668;BME280;64266;48.798;44.756;2024-01-15T03:08:02;101516.78;;;-2.54;69.92
75668;BME280;64266;48.798;44.756;2024-01-15T03:13:05;101487.94;;;-2.74;70.78
75668;BME280;64266;48.798;44.756;2024-01-15T03:18:09;101571.84;;;-2.27;71.20
75668;BME280;64266;48.798;44.756;2024-01-15T03:23:12;101490.22;;;-2.58;72.05
75668;BME280;64266;48.798;44.756;2024-01-15T03:28:15;101495.53;;;-2.48;73.22
75668;BME280;64266;48.798;44.756;2024-01-15T03:33:18;101533.50;;;-2.12;74.41
75668;BME280;64266;48.798;44.756;2024-01-15T03:38:23;101484.00;;;-2.44;73.44
75668;BME280;64266;48.798;44.756;2024-01-15T03:43:27;101526.28;;;-2.20;74.90
75668;BME280;64266;48.798;44.756;2024-01-15T03:48:30;101475.50;;;-2.35;73.27
75668;BME280;64266;48.798;44.756;2024-01-15T03:53:33;101484.84;;;-2.33;74.99
75668;BME280;64266;48.798;44.756;2024-01-15T03:58:37;101470.91;;;-2.32;74.71
75668;BME280;64266;48.798;44.756;2024-01-15T04:03:40;101470.19;;;-2.34;74.02
75668;BME280;64266;48.798;44.756;2024-01-15T04:08:43;101428.50;;;-2.65;73.14
75668;BME280;64266;48.798;44.756;2024-01-15T04:13:48;101497.47;;;-2.06;74.62
75668;BME280;64266;48.798;44.756;2024-01-15T04:18:51;101478.34;;;-2.05;73.97
75668;BME280;64266;48.798;44.756;2024-01-15T04:23:54;101469.13;;;-2.09;74.56
75668;BME280;64266;48.798;44.756;2024-01-15T04:28:57;101488.28;;;-1.99;72.94
75668;BME280;64266;48.798;44.756;2024-01-15T04:34:01;101487.44;;;-1.99;72.91
75668;BME280;64266;48.798;44.756;2024-01-15T04:39:04;101485.44;;;-1.96;73.62
75668;BME280;64266;48.798;44.756;2024-01-15T04:44:07;101439.88;;;-2.22;74.22
75668;BME280;64266;48.798;44.756;2024-01-15T04:49:11;101492.41;;;-1.85;74.19
75668;BME280;64266;48.798;44.756;2024-01-15T04:54:14;101510.47;;;-1.61;72.95
75668;BME280;64266;48.798;44.756;2024-01-15T04:59:20;101501.47;;;-1.69;74.61
75668;BME280;64266;48.798;44.756;2024-01-15T05:04:23;101505.94;;;-1.59;73.79
75668;BME280;64266;48.798;44.756;2024-01-15T05:09:29;101529.31;;;-1.37;74.23
75668;BME280;64266;48.798;44.756;2024-01-15T05:14:34;101465.56;;;-1.75;73.82
75668;BME280;64266;48.798;44.756;2024-01-15T05:19:37;101542.63;;;-1.20;72.47
75668;BME280;64266;48.798;44.756;2024-01-15T05:24:40;101489.63;;;-1.50;73.85
75668;BME280;64266;48.798;44.756;2024-01-15T05:29:43;101460.59;;;-1.67;73.01
75668;BME280;64266;48.798;44.756;2024-01-15T05:34:46;101489.47;;;-1.38;73.04
75668;BME280;64266;48.798;44.756;2024-01-15T05:39:50;101531.00;;;-1.04;74.52
75668;BME280;64266;48.798;44.756;2024-01-15T05:44:53;101524.34;;;-0.97;73.05
75668;BME280;64266;48.798;44.756;2024-01-15T05:49:57;101493.28;;;-1.10;73.49
75668;BME280;64266;48.798;44.756;2024-01-15T05:55:01;101545.69;;;-0.72;74.33
75668;BME280;64266;48.798;44.756;2024-01-15T06:00:06;101519.53;;;-1.02;75.04
75668;BME280;64266;48.798;44.756;2024-01-15T06:05:10;101457.69;;;-1.10;74.45
75668;BME280;64266;48.798;44.756;2024-01-15T06:10:14;101555.09;;;-0.60;74.74
75668;BME280;64266;48.798;44.756;2024-01-15T06:15:19;101521.28;;;-0.71;74.05
75668;BME280;64266;48.798;44.756;2024-01-15T06:20:22;101523.66;;;-0.47;74.55
75668;BME280;64266;48.798;44.756;2024-01-15T06:25:26;101450.34;;;-0.63;74.07
75668;BME280;64266;48.798;44.756;2024-01-15T06:30:28;101408.50;;;-0.92;73.30
75668;BME280;64266;48.798;44.756;2024-01-15T06:35:32;101434.28;;;-0.68;74.87
75668;BME280;64266;48.798;44.756;2024-01-15T06:40:37;101486.00;;;-0.13;73.30
75668;BME280;64266;48.798;44.756;2024-01-15T06:45:42;101408.78;;;-0.44;74.34
75668;BME280;64266;48.798;44.756;2024-01-15T06:50:46;101457.66;;;0.04;74.39
75668;BME280;64266;48.798;44.756;2024-01-15T06:55:49;101446.31;;;0.14;74.50
75668;BME280;64266;48.798;44.756;2024-01-15T07:00:53;101438.03;;;-0.01;73.76
75668;BME280;64266;48.798;44.756;2024-01-15T07:05:57;101407.72;;;0.08;74.01
75668;BME280;64266;48.798;44.756;2024-01-15T07:11:03;101427.25;;;0.23;75.99
75668;BME280;64266;48.798;44.756;2024-01-15T07:16:06;101376.81;;;0.04;74.39
75668;BME280;64266;48.798;44.756;2024-01-15T07:21:10;101410.25;;;0.48;72.56
75668;BME280;64266;48.798;44.756;2024-01-15T07:26:13;101357.19;;;-0.10;75.20
75668;BME280;64266;48.798;44.756;2024-01-15T07:31:17;101420.94;;;0.26;75.61
75668;BME280;64266;48.798;44.756;2024-01-15T07:36:20;101416.16;;;0.40;74.08
75668;BME280;64266;48.798;44.756;2024-01-15T07:41:32;101385.13;;;0.37;74.55
75668;BME280;64266;48.798;44.756;2024-01-15T07:46:45;101422.50;;;0.67;73.17
75668;BME280;64266;48.798;44.756;2024-01-15T07:51:48;101299.72;;;0.01;72.35
75668;BME280;64266;48.798;44.756;2024-01-15T07:57:00;101375.09;;;0.62;72.91
75668;BME280;64266;48.798;44.756;2024-01-15T08:02:03;101419.47;;;0.81;74.11
75668;BME280;64266;48.798;44.756;2024-01-15T08:07:07;101385.41;;;0.82;73.49
75668;BME280;64266;48.798;44.756;2024-01-15T08:12:12;101323.22;;;0.49;73.39
75668;BME280;64266;48.798;44.756;2024-01-15T08:17:15;101359.19;;;0.45;74.19
75668;BME280;64266;48.798;44.756;2024-01-15T08:22:19;101389.78;;;0.63;74.09
75668;BME280;64266;48.798;44.756;2024-01-15T08:27:23;101373.75;;;0.77;74.46
75668;BME280;64266;48.798;44.756;2024-01-15T08:32:26;101383.91;;;0.70;72.81
75668;BME280;64266;48.798;44.756;2024-01-15T08:37:29;101331.56;;;0.62;72.84
75668;BME280;64266;48.798;44.756;2024-01-15T08:42:32;101305.75;;;0.59;72.32
75668;BME280;64266;48.798;44.756;2024-01-15T08:47:36;101372.19;;;0.93;74.10
75668;BME280;64266;48.798;44.756;2024-01-15T08:52:39;101361.38;;;0.79;72.76
75668;BME280;64266;48.798;44.756;2024-01-15T08:57:41;101409.66;;;1.21;72.20
75668;BME280;64266;48.798;44.756;2024-01-15T09:02:45;101413.69;;;1.06;75.11
75668;BME280;64266;48.798;44.756;2024-01-15T09:07:48;101408.19;;;0.99;72.82
75668;BME280;64266;48.798;44.756;2024-01-15T09:12:55;101413.50;;;1.17;73.88
75668;BME280;64266;48.798;44.756;2024-01-15T09:17:59;101389.50;;;1.14;72.54
75668;BME280;64266;48.798;44.756;2024-01-15T09:23:02;101376.44;;;1.04;71.76
75668;BME280;64266;48.798;44.756;2024-01-15T09:28:05;101428.75;;;1.31;73.03
75668;BME280;64266;48.798;44.756;2024-01-15T09:33:09;101407.31;;;1.28;71.57
75668;BME280;64266;48.798;44.756;2024-01-15T09:38:13;101401.25;;;1.27;71.82
75668;BME280;64266;48.798;44.756;2024-01-15T09:43:16;101357.63;;;0.91;72.28
75668;BME280;64266;48.798;44.756;2024-01-15T09:48:22;101395.50;;;1.24;72.38
75668;BME280;64266;48.798;44.756;2024-01-15T09:53:32;101418.69;;;1.46;73.32
75668;BME280;64266;48.798;44.756;2024-01-15T09:58:53;101410.56;;;1.49;71.12
75668;BME280;64266;48.798;44.756;2024-01-15T10:03:58;101371.38;;;1.39;72.71
75668;BME280;64266;48.798;44.756;2024-01-15T10:09:04;101383.44;;;1.13;71.90
75668;BME280;64266;48.798;44.756;2024-01-15T10:14:09;101364.34;;;0.93;73.74
75668;BME280;64266;48.798;44.756;2024-01-15T10:19:14;101396.91;;;1.08;73.45
75668;BME280;64266;48.798;44.756;2024-01-15T10:24:17;101384.94;;;1.06;73.67
75668;BME280;64266;48.798;44.756;2024-01-15T10:29:20;101329.09;;;0.51;74.86
75668;BME280;64266;48.798;44.756;2024-01-15T10:34:24;101318.94;;;0.48;74.27
75668;BME280;64266;48.798;44.756;2024-01-15T10:39:30;101376.75;;;0.82;75.34
75668;BME280;64266;48.798;44.756;2024-01-15T10:44:33;101354.34;;;0.79;75.49
75668;BME280;64266;48.798;44.756;2024-01-15T10:49:37;101288.75;;;0.45;75.29
75668;BME280;64266;48.798;44.756;2024-01-15T10:54:41;101350.75;;;0.90;76.03
75668;BME280;64266;48.798;44.756;2024-01-15T10:59:46;101352.13;;;0.94;74.62
75668;BME280;64266;48.798;44.756;2024-01-15T11:04:49;101398.38;;;1.30;74.99
75668;BME280;64266;48.798;44.756;2024-01-15T11:09:53;101402.31;;;1.44;73.57
75668;BME280;64266;48.798;44.756;2024-01-15T11:15:04;101387.63;;;1.33;76.25
75668;BME280;64266;48.798;44.756;2024-01-15T11:20:08;101397.66;;;1.38;75.14
75668;BME280;64266;48.798;44.756;2024-01-15T11:25:15;101404.00;;;1.35;75.88
75668;BME280;64266;48.798;44.756;2024-01-15T11:30:25;101403.44;;;1.41;76.61
75668;BME280;64266;48.798;44.756;2024-01-15T11:35:48;101405.06;;;1.42;77.53
75668;BME280;64266;48.798;44.756;2024-01-15T11:40:51;101398.13;;;1.60;76.72
75668;BME280;64266;48.798;44.756;2024-01-15T11:45:55;101357.88;;;1.53;75.86
75668;BME280;64266;48.798;44.756;2024-01-15T11:51:00;101398.84;;;1.90;74.78
75668;BME280;64266;48.798;44.756;2024-01-15T11:56:14;101376.06;;;1.73;75.72
75668;BME280;64266;48.798;44.756;2024-01-15T12:01:19;101369.25;;;1.62;75.90
75668;BME280;64266;48.798;44.756;2024-01-15T12:06:25;101400.94;;;1.77;77.29
75668;BME280;64266;48.798;44.756;2024-01-15T12:11:29;101390.78;;;1.74;75.73
75668;BME280;64266;48.798;44.756;2024-01-15T12:16:33;101402.94;;;1.92;76.98
75668;BME280;64266;48.798;44.756;2024-01-15T12:21:39;101408.50;;;2.07;77.62
75668;BME280;64266;48.798;44.756;2024-01-15T12:26:42;101422.00;;;2.12;76.84
75668;BME280;64266;48.798;44.756;2024-01-15T12:31:50;101384.88;;;1.99;76.21
75668;BME280;64266;48.798;44.756;2024-01-15T12:36:58;101417.22;;;2.25;76.99
75668;BME280;64266;48.798;44.756;2024-01-15T12:42:01;101446.88;;;2.61;78.65
75668;BME280;64266;48.798;44.756;2024-01-15T12:47:05;101449.44;;;2.70;77.08
75668;BME280;64266;48.798;44.756;2024-01-15T12:52:10;101460.19;;;2.85;76.46
75668;BME280;64266;48.798;44.756;2024-01-15T12:57:14;101415.91;;;2.56;77.32
75668;BME280;64266;48.798;44.756;2024-01-15T13:02:18;101462.97;;;3.01;76.94
75668;BME280;64266;48.798;44.756;2024-01-15T13:07:21;101454.88;;;2.95;75.62
75668;BME280;64266;48.798;44.756;2024-01-15T13:12:25;101411.19;;;2.60;76.42
75668;BME280;64266;48.798;44.756;2024-01-15T13:17:28;101417.47;;;2.67;76.02
75668;BME280;64266;48.798;44.756;2024-01-15T13:22:32;101431.38;;;3.03;76.24
75668;BME280;64266;48.798;44.756;2024-01-15T13:27:35;101464.69;;;3.10;72.73
75668;BME280;64266;48.798;44.756;2024-01-15T13:32:41;101432.06;;;2.87;75.47
75668;BME280;64266;48.798;44.756;2024-01-15T13:37:44;101353.75;;;2.23;73.48
75668;BME280;64266;48.798;44.756;2024-01-15T13:42:47;101474.63;;;3.07;73.73
75668;BME280;64266;48.798;44.756;2024-01-15T13:47:51;101473.59;;;3.00;73.55
75668;BME280;64266;48.798;44.756;2024-01-15T13:52:55;101446.28;;;2.67;73.65
75668;BME280;64266;48.798;44.756;2024-01-15T13:58:02;101465.50;;;2.93;75.21
75668;BME280;64266;48.798;44.756;2024-01-15T14:03:10;101409.16;;;2.36;74.42
75668;BME280;64266;48.798;44.756;2024-01-15T14:08:15;101370.63;;;2.29;72.86
75668;BME280;64266;48.798;44.756;2024-01-15T14:13:21;101456.59;;;2.68;74.64
75668;BME280;64266;48.798;44.756;2024-01-15T14:18:25;101476.41;;;2.71;75.37
75668;BME280;64266;48.798;44.756;2024-01-15T14:23:29;101451.78;;;2.46;74.29
75668;BME280;64266;48.798;44.756;2024-01-15T14:28:32;101430.69;;;2.30;73.32
75668;BME280;64266;48.798;44.756;2024-01-15T14:33:35;101492.00;;;2.72;73.38
75668;BME280;64266;48.798;44.756;2024-01-15T14:38:41;101400.06;;;2.13;70.33
75668;BME280;64266;48.798;44.756;2024-01-15T14:43:45;101482.72;;;2.60;69.93
75668;BME280;64266;48.798;44.756;2024-01-15T14:48:50;101480.47;;;2.65;70.86
75668;BME280;64266;48.798;44.756;2024-01-15T14:53:54;101450.28;;;2.44;70.16
75668;BME280;64266;48.798;44.756;2024-01-15T14:58:57;101493.53;;;2.65;73.88
75668;BME280;64266;48.798;44.756;2024-01-15T15:04:00;101453.00;;;2.69;74.06
75668;BME280;64266;48.798;44.756;2024-01-15T15:09:03;101446.34;;;2.57;73.37
75668;BME280;64266;48.798;44.756;2024-01-15T15:14:12;101465.16;;;2.70;73.38
75668;BME280;64266;48.798;44.756;2024-01-15T15:19:16;101454.19;;;2.57;71.19
75668;BME280;64266;48.798;44.756;2024-01-15T15:24:21;101429.88;;;2.47;74.10
75668;BME280;64266;48.798;44.756;2024-01-15T15:29:24;101487.72;;;2.89;74.15
75668;BME280;64266;48.798;44.756;2024-01-15T15:34:27;101439.84;;;2.61;70.90
75668;BME280;64266;48.798;44.756;2024-01-15T15:39:30;101514.84;;;2.98;73.16
75668;BME280;64266;48.798;44.756;2024-01-15T15:44:33;101450.34;;;2.61;71.21
75668;BME280;64266;48.798;44.756;2024-01-15T15:49:36;101464.75;;;2.65;73.12
75668;BME280;64266;48.798;44.756;2024-01-15T15:54:40;101477.25;;;2.71;71.97
75668;BME280;64266;48.798;44.756;2024-01-15T15:59:43;101453.44;;;2.65;70.99
75668;BME280;64266;48.798;44.756;2024-01-15T16:04:47;101476.56;;;2.69;72.49
75668;BME280;64266;48.798;44.756;2024-01-15T16:09:51;101458.84;;;2.46;71.07
75668;BME280;64266;48.798;44.756;2024-01-15T16:14:54;101489.59;;;2.61;70.55
75668;BME280;64266;48.798;44.756;2024-01-15T16:20:24;101537.41;;;2.99;69.42
75668;BME280;64266;48.798;44.756;2024-01-15T16:25:47;101418.28;;;2.32;67.70
75668;BME280;64266;48.798;44.756;2024-01-15T16:30:51;101490.44;;;2.80;70.80
75668;BME280;64266;48.798;44.756;2024-01-15T16:35:57;101464.44;;;2.68;70.40
75668;BME280;64266;48.798;44.756;2024-01-15T16:41:02;101412.22;;;2.49;69.78
75668;BME280;64266;48.798;44.756;2024-01-15T16:46:07;101421.97;;;2.39;69.16
75668;BME280;64266;48.798;44.756;2024-01-15T16:51:11;101402.50;;;2.42;71.06
75668;BME280;64266;48.798;44.756;2024-01-15T16:56:14;101491.38;;;3.14;70.74
75668;BME280;64266;48.798;44.756;2024-01-15T17:01:18;101465.13;;;3.06;71.37
75668;BME280;64266;48.798;44.756;2024-01-15T17:06:21;101477.16;;;2.99;67.05
75668;BME280;64266;48.798;44.756;2024-01-15T17:11:24;101481.69;;;2.89;70.33
75668;BME280;64266;48.798;44.756;2024-01-15T17:16:27;101460.34;;;2.66;69.79
75668;BME280;64266;48.798;44.756;2024-01-15T17:21:30;101500.31;;;2.86;68.39
75668;BME280;64266;48.798;44.756;2024-01-15T17:26:34;101483.59;;;2.87;69.60
75668;BME280;64266;48.798;44.756;2024-01-15T17:31:37;101404.28;;;2.41;68.56
75668;BME280;64266;48.798;44.756;2024-01-15T17:36:40;101484.56;;;3.21;71.04
75668;BME280;64266;48.798;44.756;2024-01-15T17:41:44;101470.94;;;3.17;69.12
75668;BME280;64266;48.798;44.756;2024-01-15T17:46:47;101468.75;;;3.31;70.33
75668;BME280;64266;48.798;44.756;2024-01-15T17:51:50;101424.19;;;2.87;68.94
75668;BME280;64266;48.798;44.756;2024-01-15T17:56:57;101418.38;;;2.76;71.23
75668;BME280;64266;48.798;44.756;2024-01-15T18:02:00;101495.94;;;3.29;69.84
75668;BME280;64266;48.798;44.756;2024-01-15T18:07:04;101458.84;;;2.99;71.43
75668;BME280;64266;48.798;44.756;2024-01-15T18:12:08;101484.22;;;3.16;71.65
75668;BME280;64266;48.798;44.756;2024-01-15T18:17:12;101485.63;;;3.28;72.85
75668;BME280;64266;48.798;44.756;2024-01-15T18:22:15;101504.78;;;3.28;70.76
75668;BME280;64266;48.798;44.756;2024-01-15T18:27:19;101518.69;;;3.47;72.18
75668;BME280;64266;48.798;44.756;2024-01-15T18:32:22;101479.19;;;3.22;70.49
75668;BME280;64266;48.798;44.756;2024-01-15T18:37:26;101483.66;;;3.30;73.58
75668;BME280;64266;48.798;44.756;2024-01-15T18:42:32;101485.47;;;3.55;72.22
75668;BME280;64266;48.798;44.756;2024-01-15T18:47:36;101495.25;;;3.45;72.96
75668;BME280;64266;48.798;44.756;2024-01-15T18:52:40;101475.31;;;3.52;72.65
75668;BME280;64266;48.798;44.756;2024-01-15T18:57:43;101428.88;;;3.19;73.14
75668;BME280;64266;48.798;44.756;2024-01-15T19:02:47;101436.44;;;3.22;71.23
75668;BME280;64266;48.798;44.756;2024-01-15T19:07:52;101432.09;;;3.13;73.67
75668;BME280;64266;48.798;44.756;2024-01-15T19:12:57;101440.03;;;3.21;72.37
75668;BME280;64266;48.798;44.756;2024-01-15T19:18:01;101423.38;;;3.30;72.93
75668;BME280;64266;48.798;44.756;2024-01-15T19:23:04;101435.97;;;3.26;73.98
75668;BME280;64266;48.798;44.756;2024-01-15T19:28:07;101435.41;;;3.41;75.38
75668;BME280;64266;48.798;44.756;2024-01-15T19:33:11;101473.03;;;3.57;73.26
75668;BME280;64266;48.798;44.756;2024-01-15T19:38:17;101458.19;;;3.40;74.17
75668;BME280;64266;48.798;44.756;2024-01-15T19:43:32;101404.47;;;3.18;73.84
75668;BME280;64266;48.798;44.756;2024-01-15T19:48:50;101482.81;;;3.47;74.87
75668;BME280;64266;48.798;44.756;2024-01-15T19:53:54;101480.84;;;3.49;75.56
75668;BME280;64266;48.798;44.756;2024-01-15T19:58:57;101446.59;;;3.25;76.14
75668;BME280;64266;48.798;44.756;2024-01-15T20:04:00;101458.38;;;3.21;76.31
75668;BME280;64266;48.798;44.756;2024-01-15T20:09:12;101313.66;;;2.40;75.58
75668;BME280;64266;48.798;44.756;2024-01-15T20:14:25;101362.28;;;2.60;78.99
75668;BME280;64266;48.798;44.756;2024-01-15T20:19:30;101459.72;;;3.25;78.20
75668;BME280;64266;48.798;44.756;2024-01-15T20:24:35;101419.97;;;3.12;79.02
75668;BME280;64266;48.798;44.756;2024-01-15T20:29:38;101396.09;;;3.15;78.67
75668;BME280;64266;48.798;44.756;2024-01-15T20:34:41;101395.81;;;3.00;79.32
75668;BME280;64266;48.798;44.756;2024-01-15T20:39:44;101398.44;;;3.00;79.44
75668;BME280;64266;48.798;44.756;2024-01-15T20:44:48;101396.47;;;3.02;77.50
75668;BME280;64266;48.798;44.756;2024-01-15T20:49:52;101352.84;;;2.67;79.64
75668;BME280;64266;48.798;44.756;2024-01-15T20:54:56;101368.66;;;2.84;79.39
75668;BME280;64266;48.798;44.756;2024-01-15T21:00:03;101385.44;;;2.91;79.55
75668;BME280;64266;48.798;44.756;2024-01-15T21:05:09;101358.66;;;2.79;80.57
75668;BME280;64266;48.798;44.756;2024-01-15T21:10:16;101377.56;;;2.91;82.00
75668;BME280;64266;48.798;44.756;2024-01-15T21:15:21;101397.47;;;3.01;80.51
75668;BME280;64266;48.798;44.756;2024-01-15T21:20:26;101347.50;;;2.77;80.94
75668;BME280;64266;48.798;44.756;2024-01-15T21:25:29;101374.22;;;2.98;81.92
75668;BME280;64266;48.798;44.756;2024-01-15T21:30:33;101292.50;;;2.51;79.99
75668;BME280;64266;48.798;44.756;2024-01-15T21:35:42;101286.22;;;2.44;80.80
75668;BME280;64266;48.798;44.756;2024-01-15T21:40:48;101256.19;;;2.31;81.25
75668;BME280;64266;48.798;44.756;2024-01-15T21:45:54;101242.50;;;2.37;81.12
75668;BME280;64266;48.798;44.756;2024-01-15T21:51:09;101270.44;;;2.54;79.62
75668;BME280;64266;48.798;44.756;2024-01-15T21:56:37;101292.81;;;2.48;80.39
75668;BME280;64266;48.798;44.756;2024-01-15T22:01:42;101315.19;;;2.68;79.98
75668;BME280;64266;48.798;44.756;2024-01-15T22:06:52;101407.97;;;3.27;80.79
75668;BME280;64266;48.798;44.756;2024-01-15T22:12:04;101309.91;;;2.60;78.68
75668;BME280;64266;48.798;44.756;2024-01-15T22:17:07;101350.84;;;2.87;79.95
75668;BME280;64266;48.798;44.756;2024-01-15T22:22:11;101361.19;;;2.89;81.00
75668;BME280;64266;48.798;44.756;2024-01-15T22:27:14;101347.63;;;2.93;82.84
75668;BME280;64266;48.798;44.756;2024-01-15T22:32:17;101341.00;;;2.81;80.77
75668;BME280;64266;48.798;44.756;2024-01-15T22:37:20;101364.34;;;2.92;80.67
75668;BME280;64266;48.798;44.756;2024-01-15T22:42:23;101399.78;;;3.30;81.92
75668;BME280;64266;48.798;44.756;2024-01-15T22:47:26;101392.50;;;3.16;80.82
75668;BME280;64266;48.798;44.756;2024-01-15T22:52:30;101383.53;;;3.26;81.62
75668;BME280;64266;48.798;44.756;2024-01-15T22:57:34;101424.09;;;3.40;79.06
75668;BME280;64266;48.798;44.756;2024-01-15T23:02:37;101427.00;;;3.29;79.38
75668;BME280;64266;48.798;44.756;2024-01-15T23:07:40;101418.34;;;3.37;80.49
75668;BME280;64266;48.798;44.756;2024-01-15T23:12:43;101372.72;;;3.21;78.16
75668;BME280;64266;48.798;44.756;2024-01-15T23:17:47;101348.72;;;3.08;80.60
75668;BME280;64266;48.798;44.756;2024-01-15T23:22:51;101348.97;;;3.23;77.67
75668;BME280;64266;48.798;44.756;2024-01-15T23:27:54;101396.97;;;3.49;76.56
75668;BME280;64266;48.798;44.756;2024-01-15T23:32:57;101377.38;;;3.36;76.43
75668;BME280;64266;48.798;44.756;2024-01-15T23:38:00;101363.47;;;3.35;76.22
75668;BME280;64266;48.798;44.756;2024-01-15T23:43:03;101381.56;;;3.54;77.16
75668;BME280;64266;48.798;44.756;2024-01-15T23:48:07;101396.41;;;3.71;75.49
75668;BME280;64266;48.798;44.756;2024-01-15T23:53:31;101364.44;;;3.68;77.15
75668;BME280;64266;48.798;44.756;2024-01-15T23:58:35;101346.41;;;3.65;73.79
